Terminal Aerodrome Forecast
Issued by NWS Caribou, ME

Home | Current Version | Previous Version | Text Only | Print | Product List | Glossary On
Versions: 1 2 3 4 5 6 7 8 9 10 11 12 13 14 15 16 17 18 19 20
000
FTUS41 KCAR 290532
TAFBGR
TAF
KBGR 290532Z 2906/3006 14005KT P6SM SCT100 BKN250
     FM291000 09006KT P6SM BKN040
     FM291400 12006KT P6SM SCT025 BKN040
     FM300000 16007KT 6SM BR OVC015
     FM300300 16007KT 3SM BR OVC008=

USA.gov is the U.S. government's official web portal to all federal, state and local government web resources and services.